Flight Track Log - Related Links

Times and Time Zones

All times are in EDT time to prevent confusion due to time zone crossing. See the JBU881 flight status page for this flight to view local times or setup timezone preferences in your user account.

Time Position Orientation Groundspeed Altitude Reporting Facility
EDT Latitude Longitude Course Direction KTS MPH feet Rate Location/Type
Mon 07:26:49 AM 40.6500 -73.7167 128° Southeast 188 216 2,200  Level New York TRACON
Mon 07:28:00 AM 40.4439 -73.4342 128° Southeast  Level FlightAware Approximate
Mon 07:28:53 AM 40.5744 -73.5633 123° Southeast 260 299 6,900  Level New York Center
Mon 07:29:00 AM 40.3681 -73.3105 131° Southeast  Level FlightAware Approximate
Mon 07:29:54 AM 40.5200 -73.4931 136° Southeast 273 314 9,500  Level New York Center
Mon 07:30:00 AM 40.2903 -73.1892 128° Southeast  Level FlightAware Approximate
Mon 07:30:55 AM 40.4592 -73.4142 135° Southeast 301 346 11,100  Level New York Center
Mon 07:31:00 AM 40.2158 -73.0645 128° Southeast  Level FlightAware Approximate
Mon 07:31:56 AM 40.3903 -73.3269 136° Southeast 331 381 13,000  Level New York Center
Mon 07:32:00 AM 40.1411 -72.9401 128° Southeast  Level FlightAware Approximate
Mon 07:32:53 AM 40.3194 -73.2319 134° Southeast 356 410 15,200  Level New York Center
Mon 07:33:54 AM 40.2550 -73.1236 128° Southeast 362 417 16,900 1,636 Climbing New York Center
Mon 07:34:54 AM 40.1906 -73.0125 127° Southeast 379 436 18,500 1,700 Climbing New York Center
Mon 07:35:54 AM 40.1217 -72.8992 128° Southeast 391 450 20,300 1,513 Climbing New York Center
Mon 07:36:53 AM 40.0528 -72.7858 128° Southeast 397 457 21,500 1,250 Climbing New York Center
Mon 07:37:54 AM 39.9819 -72.6672 128° Southeast 403 464 22,800 1,140 Climbing New York Center
Mon 07:38:54 AM 39.9108 -72.5461 127° Southeast 408 470 23,800 950 Climbing New York Center
Mon 07:39:54 AM 39.8272 -72.4278 133° Southeast 421 484 24,700 942 Climbing New York Center
Mon 07:40:55 AM 39.7006 -72.4031 171° South 422 486 25,700 807 Climbing New York Center
Mon 07:41:53 AM 39.5711 -72.4056 181° South 448 516 26,300 814 Climbing New York Center
Mon 07:42:53 AM 39.4358 -72.4022 179° South 468 539 27,300 992 Climbing New York Center
Mon 07:43:54 AM 39.3022 -72.4047 181° South 479 551 28,300 1,091 Climbing New York Center
Mon 07:44:54 AM 39.1647 -72.3986 178° South 484 557 29,500 1,091 Climbing New York Center
Mon 07:45:55 AM 39.0314 -72.4008 181° South 484 557 30,500 958 Climbing New York Center
Mon 07:46:53 AM 38.8958 -72.3950 178° South 484 557 31,400 915 Climbing New York Center
Mon 07:47:53 AM 38.7583 -72.3919 179° South 489 563 32,300 1,140 Climbing New York Center
Mon 07:48:54 AM 38.6267 -72.3969 182° South 489 563 33,700 1,082 Climbing New York Center
Mon 07:49:55 AM 38.4956 -72.3858 176° South 483 556 34,500 600 Climbing New York Center
Mon 07:50:54 AM 38.3661 -72.3883 181° South 473 544 34,900 134 Climbing New York Center
Mon 07:52:00 AM 38.2362 -72.3827 178° South  Level FlightAware Approximate
Mon 07:52:54 AM 38.1117 -72.3878 178° South 468 539 34,900  Level New York Center
Mon 07:53:55 AM 37.9825 -72.3850 179° South 463 533 35,000 50 Climbing New York Center
Mon 07:54:55 AM 37.8489 -72.3872 181° South 463 533 35,000 -51 Level New York Center
Mon 07:55:53 AM 37.7175 -72.3894 181° South 468 539 34,900  Descending New York Center
Mon 07:57:00 AM 37.5856 -72.3886 180° South  Level FlightAware Approximate
Mon 07:58:55 AM 37.3400 -72.3917 180° South 460 529 35,000  Level New York Center
Mon 07:59:54 AM 37.2128 -72.3939 181° South 465 535 34,900 -50 Descending New York Center
Mon 08:00:54 AM 37.0811 -72.3936 180° South 465 535 34,900  Level New York Center
Mon 08:01:54 AM 36.9581 -72.3936 180° South 458 527 34,900  Level New York Center
Mon 08:02:55 AM 36.8372 -72.3961 181° South 452 520 34,900 50 Level New York Center
Mon 08:03:55 AM 36.7078 -72.3958 180° South 459 528 35,000 50 Climbing New York Center
Mon 08:04:00 AM 36.7587 -72.3834 180° South  Level FlightAware Approximate
Mon 08:04:54 AM 36.5806 -72.3983 181° South 459 528 35,000  Level New York Center
Mon 08:06:00 AM 36.4506 -72.3986 180° South  Level FlightAware Approximate
Mon 08:06:54 AM 36.3239 -72.4006 180° South 459 528 34,900  Level New York Center
Mon 08:07:55 AM 36.2028 -72.4003 180° South 459 528 35,000 50 Climbing New York Center
Mon 08:08:53 AM 36.0797 -72.4028 181° South 459 528 35,000 -51 Level New York Center
Mon 08:09:53 AM 35.9544 -72.4028 180° South 459 528 34,900 347 Descending New York Center
Mon 08:10:54 AM 35.8292 -72.4053 181° South 454 522 35,700 495 Climbing New York Center
Mon 08:12:00 AM 35.6998 -72.4021 179° South  Level FlightAware Approximate
Mon 08:12:55 AM 35.5831 -72.4075 179° South 452 520 36,400  Level New York Center
Mon 08:13:53 AM 35.4622 -72.4050 179° South 438 504 36,800 254 Climbing New York Center
Mon 08:14:53 AM 35.3369 -72.4100 182° South 443 510 36,900 50 Climbing New York Center
Mon 08:15:54 AM 35.2097 -72.4097 180° South 443 510 36,900  Level New York Center
Mon 08:16:54 AM 35.0844 -72.4147 182° South 443 510 36,900  Level New York Center
Mon 08:18:00 AM 34.9558 -72.3918 175° South  Level FlightAware Approximate
Mon 08:18:55 AM 34.8403 -72.4222 175° South 443 510 36,900  Level New York Center
Mon 08:19:55 AM 34.7172 -72.4169 175° South 438 504 36,900 94 Level New York Center
Mon 08:19:59 AM 35.0500 -72.4167 175° South 424 488 37,000 14 Climbing New York Oceanic (ODAPS)
Mon 08:22:00 AM 34.4777 -72.3453 176° South  Level FlightAware Approximate
Mon 08:26:58 AM 33.9833 -72.3000 167° South 434 499 37,000  Level New York Oceanic (ODAPS)
Mon 08:29:00 AM 33.6669 -72.2152 167° South  Level FlightAware Approximate
Mon 08:30:00 AM 33.5528 -72.1831 167° South  Level FlightAware Approximate
Mon 08:31:00 AM 33.4388 -72.1511 167° South  Level FlightAware Approximate
Mon 08:32:00 AM 33.3246 -72.1191 167° South  Level FlightAware Approximate
Mon 08:33:00 AM 33.1568 -72.0756 167° South 434 499 37,000  Level FlightAware Transoceanic
Mon 08:34:00 AM 33.0387 -72.0439 167° South 434 499 37,000  Level FlightAware Transoceanic
Mon 08:35:00 AM 32.9205 -72.0122 167° South 434 499 37,000  Level FlightAware Transoceanic
Mon 08:36:00 AM 32.8024 -71.9807 167° South 434 499 37,000  Level FlightAware Transoceanic
Mon 08:37:00 AM 32.6843 -71.9492 167° South 434 499 37,000  Level FlightAware Transoceanic
Mon 08:38:00 AM 32.5661 -71.9178 167° South 434 499 37,000  Level FlightAware Transoceanic
Mon 08:39:00 AM 32.4480 -71.8866 167° South 434 499 37,000  Level FlightAware Transoceanic
Mon 08:40:00 AM 32.3298 -71.8553 167° South 434 499 37,000  Level FlightAware Transoceanic
Mon 08:41:00 AM 32.2116 -71.8242 167° South 434 499 37,000  Level FlightAware Transoceanic
Mon 08:42:00 AM 32.0934 -71.7932 167° South 434 499 37,000  Level FlightAware Transoceanic
Mon 08:43:00 AM 31.9753 -71.7622 167° South 434 499 37,000  Level FlightAware Transoceanic
Mon 08:44:00 AM 31.8571 -71.7313 167° South 434 499 37,000  Level FlightAware Transoceanic
Mon 08:45:00 AM 31.7389 -71.7005 168° South 434 499 37,000  Level FlightAware Transoceanic
Mon 08:46:00 AM 31.6207 -71.6697 168° South 434 499 37,000  Level FlightAware Transoceanic
Mon 08:47:00 AM 31.5025 -71.6391 168° South 434 499 37,000  Level FlightAware Transoceanic
Mon 08:48:00 AM 31.3842 -71.6085 168° South 434 499 37,000  Level FlightAware Transoceanic
Mon 08:49:00 AM 31.2660 -71.5780 168° South 434 499 37,000  Level FlightAware Transoceanic
Mon 08:50:00 AM 31.1478 -71.5476 168° South 434 499 37,000  Level FlightAware Transoceanic
Mon 08:51:00 AM 31.0295 -71.5172 168° South 434 499 37,000  Level FlightAware Transoceanic
Mon 08:52:00 AM 30.9113 -71.4870 168° South 434 499 37,000  Level FlightAware Transoceanic
Mon 08:53:00 AM 30.7930 -71.4568 168° South 434 499 37,000  Level FlightAware Transoceanic
Mon 08:54:00 AM 30.6748 -71.4267 168° South 434 499 37,000  Level FlightAware Transoceanic
Mon 08:55:00 AM 30.5565 -71.3966 168° South 434 499 37,000  Level FlightAware Transoceanic
Mon 08:56:00 AM 30.4382 -71.3666 168° South 434 499 37,000  Level FlightAware Transoceanic
Mon 08:57:00 AM 30.3199 -71.3367 168° South 434 499 37,000  Level FlightAware Transoceanic
Mon 08:58:00 AM 30.2016 -71.3069 168° South 434 499 37,000  Level FlightAware Transoceanic
Mon 08:59:00 AM 30.0833 -71.2771 168° South 434 499 37,000  Level FlightAware Transoceanic
Mon 09:00:00 AM 29.9650 -71.2474 168° South 434 499 37,000  Level FlightAware Transoceanic
Mon 09:01:00 AM 29.8467 -71.2178 168° South 434 499 37,000  Level FlightAware Transoceanic
Mon 09:02:00 AM 29.7284 -71.1883 168° South 434 499 37,000  Level FlightAware Transoceanic
Mon 09:03:00 AM 29.6101 -71.1588 168° South 434 499 37,000  Level FlightAware Transoceanic
Mon 09:04:00 AM 29.4918 -71.1294 168° South 434 499 37,000  Level FlightAware Transoceanic
Mon 09:05:00 AM 29.3734 -71.1000 168° South 434 499 37,000  Level FlightAware Transoceanic
Mon 09:06:00 AM 29.2551 -71.0707 168° South 434 499 37,000  Level FlightAware Transoceanic
Mon 09:07:00 AM 29.1367 -71.0415 168° South 434 499 37,000  Level FlightAware Transoceanic
Mon 09:08:00 AM 29.0184 -71.0124 168° South 434 499 37,000  Level FlightAware Transoceanic
Mon 09:09:00 AM 28.9000 -70.9833 168° South 434 499 37,000  Level FlightAware Transoceanic
Mon 09:10:00 AM 28.7854 -70.9549 168° South 434 499 37,000  Level FlightAware Transoceanic
Mon 09:11:00 AM 28.6708 -70.9266 168° South 434 499 37,000  Level FlightAware Transoceanic
Mon 09:11:31 AM 28.9000 -70.9833 168° South 461 531 37,000  Level New York Oceanic (ODAPS)
Mon 09:12:00 AM 28.5561 -70.8983 168° South 434 499 37,000  Level FlightAware Transoceanic
Mon 09:13:00 AM 28.4415 -70.8701 168° South 434 499 37,000  Level FlightAware Transoceanic
Mon 09:14:00 AM 28.3269 -70.8419 168° South 434 499 37,000  Level FlightAware Transoceanic
Mon 09:15:00 AM 28.2122 -70.8138 168° South 434 499 37,000  Level FlightAware Transoceanic
Mon 09:16:00 AM 28.0976 -70.7858 168° South 434 499 37,000  Level FlightAware Transoceanic
Mon 09:17:00 AM 27.8941 -70.7362 168° South 461 531 37,000  Level FlightAware Transoceanic
Mon 09:18:00 AM 27.7684 -70.7056 168° South 461 531 37,000  Level FlightAware Transoceanic
Mon 09:19:00 AM 27.6426 -70.6751 168° South 461 531 37,000  Level FlightAware Transoceanic
Mon 09:20:00 AM 27.5168 -70.6447 168° South 461 531 37,000  Level FlightAware Transoceanic
Mon 09:21:00 AM 27.3911 -70.6143 168° South 461 531 37,000  Level FlightAware Transoceanic
Mon 09:22:00 AM 27.2653 -70.5840 168° South 461 531 37,000  Level FlightAware Transoceanic
Mon 09:23:00 AM 27.1395 -70.5538 168° South 461 531 37,000  Level FlightAware Transoceanic
Mon 09:24:00 AM 27.0137 -70.5236 168° South 461 531 37,000  Level FlightAware Transoceanic
Mon 09:25:00 AM 26.8879 -70.4936 168° South 461 531 37,000  Level FlightAware Transoceanic
Mon 09:26:00 AM 26.7621 -70.4635 168° South 461 531 37,000  Level FlightAware Transoceanic
Mon 09:27:00 AM 26.6362 -70.4336 168° South 461 531 37,000  Level FlightAware Transoceanic
Mon 09:28:00 AM 26.5104 -70.4037 168° South 461 531 37,000  Level FlightAware Transoceanic
Mon 09:29:00 AM 26.3846 -70.3739 168° South 461 531 37,000  Level FlightAware Transoceanic
Mon 09:30:00 AM 26.2587 -70.3441 168° South 461 531 37,000  Level FlightAware Transoceanic
Mon 09:31:00 AM 26.1329 -70.3144 168° South 461 531 37,000  Level FlightAware Transoceanic
Mon 09:32:00 AM 26.0070 -70.2848 168° South 461 531 37,000  Level FlightAware Transoceanic
Mon 09:33:00 AM 25.8812 -70.2552 168° South 461 531 37,000  Level FlightAware Transoceanic
Mon 09:34:00 AM 25.7553 -70.2257 168° South 461 531 37,000  Level FlightAware Transoceanic
Mon 09:35:00 AM 25.6294 -70.1963 168° South 461 531 37,000  Level FlightAware Transoceanic
Mon 09:36:00 AM 25.5036 -70.1669 168° South 461 531 37,000  Level FlightAware Transoceanic
Mon 09:37:00 AM 25.3777 -70.1376 168° South 461 531 37,000  Level FlightAware Transoceanic
Mon 09:38:00 AM 25.2518 -70.1083 168° South 461 531 37,000  Level FlightAware Transoceanic
Mon 09:39:00 AM 25.1259 -70.0791 168° South 461 531 37,000  Level FlightAware Transoceanic
Mon 09:40:00 AM 25.0000 -70.0500 176° South 461 531 37,000  Level FlightAware Transoceanic
Mon 09:41:00 AM 24.8828 -70.0417 176° South 461 531 37,000  Level FlightAware Transoceanic
Mon 09:42:00 AM 24.7656 -70.0334 176° South 461 531 37,000  Level FlightAware Transoceanic
Mon 09:42:22 AM 25.2217 -70.1336 176° South 463 533 37,000  Level Miami Center
Mon 09:43:00 AM 24.6484 -70.0252 176° South 461 531 37,000  Level FlightAware Transoceanic
Mon 09:43:22 AM 25.1136 -70.0961 163° South 463 533 37,000  Level Miami Center
Mon 09:44:00 AM 24.5312 -70.0170 176° South 461 531 37,000 -100 Level FlightAware Transoceanic
Mon 09:44:22 AM 24.9844 -70.0575 165° South 453 521 36,900  Descending Miami Center
Mon 09:45:00 AM 24.4140 -70.0087 176° South 461 531 37,000 61 Climbing FlightAware Transoceanic
Mon 09:46:00 AM 24.2968 -70.0005 176° South 461 531 37,000  Level FlightAware Transoceanic
Mon 09:46:00 AM 24.7981 -70.0268 178° South  Level FlightAware Approximate
Mon 09:47:00 AM 24.1796 -69.9923 176° South 461 531 37,000  Level FlightAware Transoceanic
Mon 09:47:22 AM 24.6392 -70.0331 178° South 422 486 37,000  Level Miami Center
Mon 09:48:00 AM 24.0624 -69.9842 176° South 461 531 37,000  Level FlightAware Transoceanic
Mon 09:48:22 AM 24.5242 -70.0281 178° South 413 475 37,000  Level Miami Center
Mon 09:49:22 AM 24.4117 -70.0297 181° South 419 482 37,000  Level Miami Center
Mon 09:50:22 AM 24.2919 -70.0158 174° South 422 486 37,000  Level Miami Center
Mon 09:51:22 AM 24.1836 -70.0194 182° South 417 480 37,000  Level Miami Center
Mon 09:52:22 AM 24.0686 -70.0122 177° South 412 474 37,000  Level Miami Center
Mon 09:53:22 AM 23.9531 -69.9981 174° South 417 480 37,000  Level Miami Center
Mon 09:54:22 AM 23.8381 -69.9883 176° South 422 486 37,000  Level Miami Center
Mon 09:55:22 AM 23.7228 -69.9811 177° South 422 486 37,000  Level Miami Center
Mon 09:56:22 AM 23.6100 -69.9758 178° South 422 486 37,000  Level Miami Center
Mon 09:57:22 AM 23.4928 -69.9664 176° South 422 486 37,000  Level Miami Center
Mon 09:58:22 AM 23.3775 -69.9567 176° South 427 491 37,000  Level Miami Center
Mon 09:59:22 AM 23.2622 -69.9450 175° South 421 484 37,000  Level Miami Center
Mon 10:00:22 AM 23.1450 -69.9356 176° South 427 491 37,000  Level Miami Center
Mon 10:02:00 AM 22.9568 -69.9193 175° South  Level FlightAware Approximate
Mon 10:03:22 AM 22.7956 -69.9092 175° South 422 486 37,000  Level Miami Center
Mon 10:04:22 AM 22.6783 -69.8997 176° South 427 491 37,000  Level Miami Center
Mon 10:05:22 AM 22.5608 -69.8881 175° South 427 491 37,000  Level Miami Center
Mon 10:06:22 AM 22.4417 -69.8811 177° South 427 491 37,000  Level Miami Center
Mon 10:08:22 AM 22.2053 -69.8622 176° South 427 491 37,000  Level Miami Center
Mon 10:10:22 AM 21.9689 -69.8433 176° South 427 491 37,000  Level Miami Center
Mon 10:11:22 AM 21.8497 -69.8364 177° South 427 491 37,000  Level Miami Center
Mon 10:12:22 AM 21.7261 -69.8250 175° South 432 497 37,000  Level Miami Center
Mon 10:14:00 AM 21.5383 -69.8004 175° South  Level FlightAware Approximate
Mon 10:15:22 AM 21.3831 -69.7983 175° South 427 491 37,000  Level Miami Center
Mon 10:16:22 AM 21.2639 -69.7892 176° South 427 491 37,000  Level Miami Center
Mon 10:17:22 AM 21.1447 -69.7797 176° South 427 491 37,000  Level Miami Center
Mon 10:18:22 AM 21.0297 -69.7703 176° South 422 486 37,000  Level Miami Center
Mon 10:19:22 AM 20.9083 -69.7611 176° South 428 493 37,000  Level Miami Center
Mon 10:20:22 AM 20.7892 -69.7517 176° South 434 499 37,000  Level Miami Center
Mon 10:22:00 AM 20.6011 -69.7349 175° South  Level FlightAware Approximate
Mon 10:22:22 AM 20.5489 -69.7356 175° South 434 499 37,000  Level Miami Center
Mon 10:23:22 AM 20.4297 -69.7239 175° South 439 505 37,000  Level Miami Center
Mon 10:24:22 AM 20.3083 -69.7147 176° South 444 511 37,000  Level Miami Center
Mon 10:26:22 AM 20.0703 -69.6983 176° South 438 504 37,000  Level Miami Center
Mon 10:28:00 AM 19.8822 -69.6826 179° South  Level FlightAware Approximate
Mon 10:35:00 AM 19.0733 -69.6738 179° South  Level FlightAware Approximate
Mon 10:36:00 AM 18.9577 -69.6725 179° South  Level FlightAware Approximate
Mon 10:37:00 AM 18.8422 -69.6713 179° South  Level FlightAware Approximate
Mon 10:38:00 AM 18.7266 -69.6700 179° South  Level FlightAware Approximate
Mon 10:39:00 AM 18.6111 -69.6688 179° South  Level FlightAware Approximate
Mon 10:40:00 AM 18.4955 -69.6675 179° South  Level FlightAware Approximate
Mon 10:41:00 AM 18.3804 -69.6728 189° South  Level FlightAware Approximate
Mon 10:42:00 AM 18.2663 -69.6919 189° South  Level FlightAware Approximate
Mon 10:43:00 AM 18.1522 -69.7110 189° South  Level FlightAware Approximate
Mon 10:44:00 AM 18.0380 -69.7301 189° South  Level FlightAware Approximate
Mon 10:45:00 AM 17.9239 -69.7491 189° South  Level FlightAware Approximate
Mon 10:46:00 AM 17.8098 -69.7681 189° South  Level FlightAware Approximate
Mon 10:47:00 AM 17.6956 -69.7871 189° South  Level FlightAware Approximate
Mon 10:48:00 AM 17.5815 -69.8061 189° South  Level FlightAware Approximate
Mon 10:49:00 AM 17.4674 -69.8251 189° South  Level FlightAware Approximate
Mon 10:50:00 AM 17.3532 -69.8440 189° South  Level FlightAware Approximate
Mon 10:51:00 AM 17.2391 -69.8629 189° South  Level FlightAware Approximate
Mon 10:52:00 AM 17.1249 -69.8818 189° South  Level FlightAware Approximate
Mon 10:53:00 AM 17.0108 -69.9007 189° South  Level FlightAware Approximate
Mon 10:54:00 AM 16.8966 -69.9195 189° South  Level FlightAware Approximate
Mon 10:55:00 AM 16.7825 -69.9383 189° South  Level FlightAware Approximate
Mon 10:56:00 AM 16.6683 -69.9571 189° South  Level FlightAware Approximate
Mon 10:57:00 AM 16.5542 -69.9759 189° South  Level FlightAware Approximate
Mon 10:58:00 AM 16.4400 -69.9946 189° South  Level FlightAware Approximate
Mon 10:59:00 AM 16.3259 -70.0133 189° South  Level FlightAware Approximate
Mon 11:00:00 AM 16.2117 -70.0320 189° South  Level FlightAware Approximate
Mon 11:01:00 AM 16.0975 -70.0507 189° South  Level FlightAware Approximate
Mon 11:02:00 AM 15.9832 -70.0660 178° South  Level FlightAware Approximate
Mon 11:03:00 AM 15.8677 -70.0612 178° South  Level FlightAware Approximate
Mon 11:04:00 AM 15.7523 -70.0564 178° South  Level FlightAware Approximate
Mon 11:05:00 AM 15.6368 -70.0517 178° South  Level FlightAware Approximate
Mon 11:06:00 AM 15.5213 -70.0469 178° South  Level FlightAware Approximate
Mon 11:07:00 AM 15.4059 -70.0422 178° South  Level FlightAware Approximate
Mon 11:08:00 AM 15.2904 -70.0374 178° South  Level FlightAware Approximate
Mon 11:09:00 AM 15.1749 -70.0327 178° South  Level FlightAware Approximate
Mon 11:10:00 AM 15.0594 -70.0280 178° South  Level FlightAware Approximate
Mon 11:11:00 AM 14.9440 -70.0232 178° South  Level FlightAware Approximate
Mon 11:12:00 AM 14.8285 -70.0185 178° South  Level FlightAware Approximate
Mon 11:13:00 AM 14.7130 -70.0167 180° South  Level FlightAware Approximate
Mon 11:14:00 AM 14.5974 -70.0150 177° South  Level FlightAware Approximate
Mon 11:15:00 AM 14.4820 -70.0095 177° South  Level FlightAware Approximate
Mon 11:16:00 AM 14.3666 -70.0040 177° South  Level FlightAware Approximate
Mon 11:17:00 AM 14.2511 -70.0000 180° South  Level FlightAware Approximate
Mon 11:18:00 AM 14.1356 -69.9968 176° South  Level FlightAware Approximate
Mon 11:19:00 AM 14.0203 -69.9891 176° South  Level FlightAware Approximate
Mon 11:20:00 AM 13.9049 -69.9833 180° South  Level FlightAware Approximate
Mon 11:21:00 AM 13.7894 -69.9833 180° South  Level FlightAware Approximate
Mon 11:22:00 AM 13.6738 -69.9830 178° South  Level FlightAware Approximate
Mon 11:23:00 AM 13.5583 -69.9789 178° South  Level FlightAware Approximate
Mon 11:24:00 AM 13.4428 -69.9747 178° South  Level FlightAware Approximate
Mon 11:25:00 AM 13.3273 -69.9706 178° South  Level FlightAware Approximate
Mon 11:26:00 AM 13.2119 -69.9662 174° South  Level FlightAware Approximate
Mon 11:27:00 AM 13.0968 -69.9547 174° South  Level FlightAware Approximate
Mon 11:28:00 AM 12.9815 -69.9500 180° South  Level FlightAware Approximate
Mon 11:29:00 AM 12.8659 -69.9500 180° South  Level FlightAware Approximate
Mon 11:30:00 AM 12.7508 -69.9401 174° South  Level FlightAware Approximate
Mon 11:31:00 AM 12.6356 -69.9333 180° South  Level FlightAware Approximate
Mon 11:32:00 AM 12.5200 -69.9333 180° South  Level FlightAware Approximate
Mon 11:33:00 AM 12.5000 -70.0167 270° West  Level FlightAware Approximate
Mon 11:34:00 AM 12.5014 -70.0152 270° West  Level Estimated
Mon 11:35:00 AM 12.5000 -70.0167 270° West  Level FlightAware Approximate
Mon 11:36:00 AM 12.5014 -70.0152 270° West  Level Estimated
Mon 11:37:00 AM 12.5000 -70.0167 270° West  Level FlightAware Approximate
Mon 11:38:00 AM 12.5014 -70.0152 270° West  Level Estimated
Mon 11:39:00 AM 12.5000 -70.0167 270° West  Level FlightAware Approximate
Mon 11:40:00 AM 12.5014 -70.0152 270° West  Level Estimated
Mon 11:41:00 AM 12.5000 -70.0167 270° West  Level FlightAware Approximate
Mon 11:42:00 AM 12.5014 -70.0152 270° West  Level Estimated

Login

Don't have an account? Register now (free) for customized features, flight alerts, and more!